Time;durP1;ratioP1;P1;durP2;ratioP2;P2;SDS_P1;SDS_P2;PMS_P1;PMS_P2;Temp;Humidity;BMP_temperature;BMP_pressure;BME280_temperature;BME280_humidity;BME280_pressure;Samples;Min_cycle;Max_cycle;Signal;HPM_P1;HPM_P2
2023/12/10 00:00:31;;;;;;;20.60;3.58;;;9.60;89.00;;;;;;5134830;27;20056;-31
2023/12/10 00:02:57;;;;;;;18.25;3.63;;;9.60;88.70;;;;;;5134646;27;20059;-27
2023/12/10 00:05:22;;;;;;;16.27;4.13;;;9.60;88.70;;;;;;5135047;27;20023;-30
2023/12/10 00:07:48;;;;;;;24.20;4.20;;;9.70;88.80;;;;;;5134914;27;20027;-29
2023/12/10 00:10:13;;;;;;;17.17;4.00;;;9.70;88.60;;;;;;5134829;27;20493;-28
2023/12/10 00:12:40;;;;;;;22.38;4.55;;;9.60;88.30;;;;;;5134676;27;20393;-28
2023/12/10 00:15:06;;;;;;;23.27;5.07;;;9.70;87.30;;;;;;5134881;27;20454;-29
2023/12/10 00:17:31;;;;;;;24.95;4.72;;;9.70;87.20;;;;;;5134774;27;20050;-32
2023/12/10 00:19:57;;;;;;;21.98;4.60;;;9.70;87.30;;;;;;5134626;27;20016;-28
2023/12/10 00:22:22;;;;;;;18.27;4.53;;;9.70;86.70;;;;;;5134901;27;20020;-33
2023/12/10 00:24:48;;;;;;;27.88;5.15;;;9.80;86.80;;;;;;5134494;27;20028;-30
2023/12/10 00:27:13;;;;;;;22.20;4.28;;;9.70;86.70;;;;;;5134510;27;20027;-31
2023/12/10 00:29:39;;;;;;;16.75;3.38;;;9.80;86.70;;;;;;5134624;27;20023;-30
2023/12/10 00:32:05;;;;;;;19.30;4.78;;;9.80;86.80;;;;;;5134240;27;20035;-30
2023/12/10 00:34:30;;;;;;;23.30;4.88;;;9.80;86.90;;;;;;5134374;27;20016;-29
2023/12/10 00:36:56;;;;;;;25.42;4.43;;;9.80;86.60;;;;;;5134420;27;20019;-30
2023/12/10 00:39:21;;;;;;;25.10;5.57;;;9.80;86.90;;;;;;5134365;27;20167;-29
2023/12/10 00:41:47;;;;;;;18.88;4.45;;;9.80;87.20;;;;;;5134381;27;20035;-29
2023/12/10 00:44:12;;;;;;;25.67;5.25;;;9.70;87.40;;;;;;5134335;27;20026;-29
2023/12/10 00:46:38;;;;;;;27.88;5.47;;;9.70;87.80;;;;;;5134121;27;20494;-42
2023/12/10 00:49:03;;;;;;;21.40;4.57;;;9.70;88.10;;;;;;5134062;27;20500;-36
2023/12/10 00:51:29;;;;;;;28.45;5.72;;;9.60;88.40;;;;;;5134308;27;20143;-29
2023/12/10 00:53:55;;;;;;;17.67;4.43;;;9.60;88.80;;;;;;5134201;27;20428;-28
2023/12/10 00:56:20;;;;;;;21.63;4.05;;;9.50;89.00;;;;;;5134243;27;20035;-33
2023/12/10 00:58:46;;;;;;;21.65;4.28;;;9.50;89.40;;;;;;5132698;27;20438;-30
2023/12/10 01:01:11;;;;;;;25.15;4.50;;;9.50;89.80;;;;;;5134143;27;20027;-29
2023/12/10 01:03:37;;;;;;;21.58;4.68;;;9.50;90.00;;;;;;5133833;27;20062;-28
2023/12/10 01:06:04;;;;;;;23.42;4.85;;;9.40;90.20;;;;;;5133994;27;20062;-29
2023/12/10 01:08:30;;;;;;;27.77;4.93;;;9.40;90.30;;;;;;5133762;27;20075;-32
2023/12/10 01:10:56;;;;;;;29.27;4.78;;;9.30;90.50;;;;;;5134040;27;20023;-31
2023/12/10 01:13:24;;;;;;;23.02;4.25;;;9.30;90.50;;;;;;5132991;27;20020;-31
2023/12/10 01:15:51;;;;;;;22.80;4.38;;;9.30;90.60;;;;;;5133717;27;20093;-29
2023/12/10 01:18:16;;;;;;;28.27;4.75;;;9.30;90.70;;;;;;5133859;27;20076;-31
2023/12/10 01:20:42;;;;;;;26.13;5.10;;;9.30;90.70;;;;;;5133629;27;20019;-31
2023/12/10 01:23:08;;;;;;;21.48;4.43;;;9.20;90.80;;;;;;5133746;27;20016;-30
2023/12/10 01:25:34;;;;;;;21.75;4.25;;;9.20;90.80;;;;;;5133484;27;20110;-29
2023/12/10 01:28:00;;;;;;;25.42;4.75;;;9.20;90.90;;;;;;5134068;27;20055;-30
2023/12/10 01:30:26;;;;;;;19.98;4.45;;;9.10;90.90;;;;;;5133313;27;20412;-36
2023/12/10 01:32:58;;;;;;;20.95;3.78;;;9.10;91.00;;;;;;5133271;27;20098;-31
2023/12/10 01:35:25;;;;;;;18.60;4.28;;;9.10;91.10;;;;;;5132964;27;20027;-28
2023/12/10 01:37:51;;;;;;;21.25;4.47;;;9.00;91.10;;;;;;5133326;27;20474;-27
2023/12/10 01:40:17;;;;;;;20.52;4.55;;;9.00;91.20;;;;;;5132957;27;20080;-26
2023/12/10 01:42:44;;;;;;;17.63;3.70;;;9.00;91.30;;;;;;5133029;27;20094;-29
2023/12/10 01:45:10;;;;;;;26.92;4.55;;;9.00;91.30;;;;;;5132920;27;20024;-29
2023/12/10 01:47:39;;;;;;;16.70;3.78;;;9.00;91.30;;;;;;5133018;27;20106;-31
2023/12/10 01:50:06;;;;;;;20.50;4.55;;;9.00;91.30;;;;;;5133106;27;20030;-28
2023/12/10 01:52:33;;;;;;;24.85;3.97;;;9.00;91.30;;;;;;5133041;27;20467;-32
2023/12/10 01:55:01;;;;;;;15.55;3.40;;;9.00;91.20;;;;;;5132962;27;20023;-28
2023/12/10 01:57:29;;;;;;;18.05;3.95;;;9.00;91.20;;;;;;5132790;27;20466;-29
2023/12/10 01:59:56;;;;;;;23.13;5.13;;;9.00;91.20;;;;;;5133076;27;20026;-27
2023/12/10 02:02:22;;;;;;;16.48;3.03;;;8.90;91.20;;;;;;5132130;27;20054;-28
2023/12/10 02:04:47;;;;;;;25.85;4.43;;;8.90;91.10;;;;;;5132811;27;20475;-28
2023/12/10 02:07:13;;;;;;;20.95;4.22;;;8.90;91.20;;;;;;5132541;27;20023;-28
2023/12/10 02:09:39;;;;;;;17.95;3.40;;;8.90;91.10;;;;;;5132654;27;20096;-28
2023/12/10 02:12:05;;;;;;;20.95;4.13;;;8.90;91.20;;;;;;5132533;27;20111;-32
2023/12/10 02:14:30;;;;;;;20.40;4.25;;;8.90;91.20;;;;;;5132684;27;20019;-30
2023/12/10 02:16:56;;;;;;;21.98;3.80;;;8.90;91.10;;;;;;5132664;27;20027;-28
2023/12/10 02:19:21;;;;;;;20.80;3.65;;;8.90;91.20;;;;;;5132888;27;20016;-29
2023/12/10 02:21:50;;;;;;;20.17;4.05;;;8.80;91.20;;;;;;5132344;27;20023;-29
2023/12/10 02:24:23;;;;;;;21.00;3.47;;;8.80;91.10;;;;;;5132535;27;20485;-30
2023/12/10 02:26:48;;;;;;;20.65;3.40;;;8.80;91.20;;;;;;5132502;27;20055;-28
2023/12/10 02:29:14;;;;;;;19.75;3.40;;;8.80;91.20;;;;;;5132439;27;20024;-28
2023/12/10 02:31:39;;;;;;;18.08;3.67;;;8.80;91.10;;;;;;5132082;27;20039;-28
2023/12/10 02:34:05;;;;;;;17.30;3.33;;;8.80;91.20;;;;;;5132348;27;20033;-30
2023/12/10 02:36:31;;;;;;;19.50;4.68;;;8.80;91.20;;;;;;5131184;28;20415;-31
2023/12/10 02:38:57;;;;;;;20.73;4.22;;;8.80;91.20;;;;;;5132340;27;20023;-29
2023/12/10 02:41:22;;;;;;;17.25;3.17;;;8.80;91.20;;;;;;5132384;27;20050;-29
2023/12/10 02:43:48;;;;;;;19.38;3.70;;;8.80;91.30;;;;;;5132362;27;20052;-29
2023/12/10 02:46:13;;;;;;;21.85;3.88;;;8.80;91.40;;;;;;5131054;28;20031;-29
2023/12/10 02:48:39;;;;;;;24.30;4.22;;;8.80;91.40;;;;;;5132066;27;20019;-29
2023/12/10 02:51:05;;;;;;;20.13;3.58;;;8.70;91.50;;;;;;5132096;27;20050;-29
2023/12/10 02:53:31;;;;;;;19.35;4.90;;;8.70;91.50;;;;;;5132595;27;20382;-29
2023/12/10 02:55:57;;;;;;;22.13;3.90;;;8.70;91.60;;;;;;5132553;27;20031;-36
2023/12/10 02:58:23;;;;;;;23.02;4.18;;;8.60;91.60;;;;;;5130792;28;20027;-29
2023/12/10 03:00:48;;;;;;;22.80;4.20;;;8.60;91.70;;;;;;5132579;27;20030;-29
2023/12/10 03:03:14;;;;;;;23.38;4.05;;;8.60;91.80;;;;;;5130673;28;20023;-29
2023/12/10 03:05:39;;;;;;;16.70;3.58;;;8.60;91.80;;;;;;5132431;27;20400;-28
2023/12/10 03:08:05;;;;;;;21.15;3.90;;;8.60;91.80;;;;;;5132036;27;20067;-28
2023/12/10 03:10:31;;;;;;;15.32;3.58;;;8.50;91.90;;;;;;5132298;28;20072;-29
2023/12/10 03:12:56;;;;;;;19.00;3.80;;;8.50;91.90;;;;;;5130702;28;20501;-27
2023/12/10 03:15:22;;;;;;;23.63;4.20;;;8.50;92.00;;;;;;5132324;27;20543;-28
2023/12/10 03:17:47;;;;;;;22.50;3.88;;;8.50;92.00;;;;;;5132271;27;20534;-29
2023/12/10 03:20:13;;;;;;;28.20;4.13;;;8.50;92.10;;;;;;5132119;27;20020;-28
2023/12/10 03:22:38;;;;;;;23.95;4.72;;;8.50;92.10;;;;;;5132243;27;20026;-31
2023/12/10 03:25:04;;;;;;;20.40;3.97;;;8.40;92.00;;;;;;5131946;27;20020;-29
2023/12/10 03:27:30;;;;;;;31.45;5.32;;;8.40;92.10;;;;;;5131933;27;20031;-27
2023/12/10 03:29:56;;;;;;;26.17;4.80;;;8.40;92.20;;;;;;5131643;27;20015;-28
2023/12/10 03:32:21;;;;;;;23.00;4.32;;;8.40;92.20;;;;;;5131900;27;20051;-28
2023/12/10 03:34:47;;;;;;;18.20;3.58;;;8.40;92.30;;;;;;5132401;27;20007;-29
2023/12/10 03:37:12;;;;;;;21.90;4.13;;;8.30;92.30;;;;;;5135318;27;20015;-28
2023/12/10 03:39:38;;;;;;;25.67;4.53;;;8.40;92.40;;;;;;5135960;27;20034;-28
2023/12/10 03:42:04;;;;;;;23.67;3.90;;;8.30;92.40;;;;;;5135520;27;20379;-30
2023/12/10 03:44:31;;;;;;;30.75;5.22;;;8.30;92.40;;;;;;5134191;27;20051;-27
2023/12/10 03:47:01;;;;;;;24.42;4.63;;;8.30;92.50;;;;;;5135688;27;20025;-27
2023/12/10 03:49:27;;;;;;;21.65;4.30;;;8.30;92.50;;;;;;5135490;27;20460;-28
2023/12/10 03:51:52;;;;;;;25.48;4.75;;;8.30;92.60;;;;;;5135234;27;20027;-29
2023/12/10 03:54:18;;;;;;;25.50;5.10;;;8.30;92.60;;;;;;5135366;27;20027;-27
2023/12/10 03:56:43;;;;;;;26.10;4.13;;;8.30;92.60;;;;;;5135686;27;20023;-33
2023/12/10 03:59:09;;;;;;;25.25;4.03;;;8.30;92.60;;;;;;5135234;27;20015;-28
2023/12/10 04:01:34;;;;;;;28.17;4.10;;;8.30;92.60;;;;;;5135497;27;20027;-28
2023/12/10 04:04:01;;;;;;;22.65;4.25;;;8.30;92.60;;;;;;5134961;27;20475;-31
2023/12/10 04:06:27;;;;;;;22.40;4.15;;;8.30;92.60;;;;;;5135108;27;20031;-33
2023/12/10 04:08:54;;;;;;;25.33;4.30;;;8.30;92.60;;;;;;5135535;27;20043;-28
2023/12/10 04:11:25;;;;;;;25.63;4.45;;;8.30;92.60;;;;;;5135754;27;20467;-29
2023/12/10 04:13:51;;;;;;;26.40;4.80;;;8.30;92.50;;;;;;5135011;27;20027;-30
2023/12/10 04:16:27;;;;;;;23.48;4.20;;;8.40;92.60;;;;;;5135091;27;20023;-34
2023/12/10 04:18:52;;;;;;;23.30;4.28;;;8.40;92.60;;;;;;5134907;27;20027;-31
2023/12/10 04:21:22;;;;;;;25.65;4.35;;;8.40;92.60;;;;;;5134866;27;20026;-30
2023/12/10 04:23:47;;;;;;;30.75;4.78;;;8.40;92.60;;;;;;5135019;27;20551;-28
2023/12/10 04:26:15;;;;;;;28.92;4.53;;;8.30;92.60;;;;;;5133193;27;20047;-29
2023/12/10 04:28:42;;;;;;;24.55;4.10;;;8.40;92.60;;;;;;5134620;27;20015;-29
2023/12/10 04:31:08;;;;;;;27.30;4.50;;;8.40;92.60;;;;;;5134611;27;20039;-31
2023/12/10 04:33:33;;;;;;;26.58;4.72;;;8.40;92.60;;;;;;5134636;27;20037;-33
2023/12/10 04:36:00;;;;;;;23.48;4.63;;;8.40;92.60;;;;;;5134435;27;20341;-36
2023/12/10 04:38:26;;;;;;;27.10;4.32;;;8.40;92.50;;;;;;5134545;27;20372;-29
2023/12/10 04:40:52;;;;;;;26.67;4.65;;;8.40;92.40;;;;;;5134273;27;20027;-29
2023/12/10 04:43:18;;;;;;;22.60;3.80;;;8.40;92.40;;;;;;5134230;27;20023;-29
2023/12/10 04:45:43;;;;;;;27.95;5.07;;;8.40;92.40;;;;;;5134398;27;20490;-29
2023/12/10 04:48:10;;;;;;;24.25;4.57;;;8.50;92.30;;;;;;5133019;27;20023;-29
2023/12/10 04:50:36;;;;;;;24.70;4.63;;;8.40;92.30;;;;;;5134084;27;20050;-29
2023/12/10 04:53:01;;;;;;;23.42;4.20;;;8.40;92.30;;;;;;5134071;27;20107;-35
2023/12/10 04:55:27;;;;;;;23.92;4.18;;;8.40;92.30;;;;;;5133912;27;20107;-29
2023/12/10 04:57:53;;;;;;;27.30;5.75;;;8.40;92.30;;;;;;5134007;27;20027;-29
2023/12/10 05:00:18;;;;;;;24.55;4.22;;;8.50;92.30;;;;;;5134043;27;20030;-28
2023/12/10 05:02:44;;;;;;;26.20;5.20;;;8.40;92.10;;;;;;5133745;27;20051;-29
2023/12/10 05:05:10;;;;;;;25.75;4.30;;;8.40;92.10;;;;;;5134229;27;20019;-30
2023/12/10 05:07:35;;;;;;;26.60;5.13;;;8.40;92.10;;;;;;5133795;27;20102;-29
2023/12/10 05:10:01;;;;;;;26.55;4.90;;;8.40;92.10;;;;;;5134011;27;20026;-29
2023/12/10 05:12:26;;;;;;;23.05;5.40;;;8.50;92.10;;;;;;5133400;27;20023;-28
2023/12/10 05:14:52;;;;;;;18.48;4.20;;;8.50;91.90;;;;;;5133938;27;20030;-28
2023/12/10 05:17:18;;;;;;;23.15;4.50;;;8.50;92.00;;;;;;5133683;27;20478;-30
2023/12/10 05:19:43;;;;;;;21.88;4.70;;;8.50;91.90;;;;;;5133410;27;20034;-28
2023/12/10 05:22:09;;;;;;;18.00;4.22;;;8.50;91.90;;;;;;5133176;27;20108;-29
2023/12/10 05:24:34;;;;;;;24.38;4.05;;;8.50;91.90;;;;;;5133671;27;20030;-34
2023/12/10 05:27:00;;;;;;;22.80;4.45;;;8.50;91.80;;;;;;5133649;27;20023;-29
2023/12/10 05:29:25;;;;;;;24.80;4.85;;;8.50;91.70;;;;;;5133413;27;20019;-30
2023/12/10 05:31:51;;;;;;;23.40;4.38;;;8.50;91.80;;;;;;5133243;27;20050;-36
2023/12/10 05:34:16;;;;;;;19.63;4.20;;;8.50;91.70;;;;;;5132324;27;20042;-29
2023/12/10 05:36:42;;;;;;;19.98;4.18;;;8.50;91.60;;;;;;5133251;27;20106;-29
2023/12/10 05:39:08;;;;;;;23.92;3.97;;;8.60;91.60;;;;;;5133232;27;20033;-29
2023/12/10 05:41:33;;;;;;;23.58;4.22;;;8.60;91.50;;;;;;5133677;27;20098;-28
2023/12/10 05:43:59;;;;;;;20.40;4.38;;;8.60;91.60;;;;;;5131793;27;20106;-28
2023/12/10 05:46:25;;;;;;;21.48;3.70;;;8.60;91.40;;;;;;5132999;27;20024;-28
2023/12/10 05:48:50;;;;;;;29.67;4.22;;;8.60;91.40;;;;;;5133249;27;20023;-29
2023/12/10 05:51:16;;;;;;;21.55;4.47;;;8.60;91.40;;;;;;5133267;27;20072;-35
2023/12/10 05:53:41;;;;;;;26.08;4.90;;;8.60;91.30;;;;;;5131824;27;20486;-29
2023/12/10 05:56:08;;;;;;;26.15;4.90;;;8.60;91.20;;;;;;5133052;27;20027;-29
2023/12/10 05:58:33;;;;;;;23.95;4.53;;;8.60;91.20;;;;;;5132838;27;20084;-29
2023/12/10 06:00:59;;;;;;;23.00;4.38;;;8.60;91.10;;;;;;5132929;27;20026;-31
2023/12/10 06:03:25;;;;;;;21.05;4.00;;;8.60;91.00;;;;;;5132916;27;20360;-30
2023/12/10 06:05:51;;;;;;;15.30;3.28;;;8.60;91.00;;;;;;5133050;27;20057;-28
2023/12/10 06:08:16;;;;;;;20.02;3.95;;;8.60;91.00;;;;;;5132796;27;20122;-32
2023/12/10 06:10:42;;;;;;;27.35;4.20;;;8.60;91.00;;;;;;5133070;27;20109;-31
2023/12/10 06:13:08;;;;;;;20.05;3.63;;;8.60;91.00;;;;;;5132937;27;20110;-31
2023/12/10 06:15:33;;;;;;;33.75;5.95;;;8.60;90.90;;;;;;5133185;27;20030;-31
2023/12/10 06:17:59;;;;;;;22.02;4.82;;;8.70;90.60;;;;;;5132625;27;20052;-30
2023/12/10 06:20:25;;;;;;;19.10;4.32;;;8.70;90.60;;;;;;5133009;27;20023;-31
2023/12/10 06:22:50;;;;;;;28.45;4.55;;;8.70;90.30;;;;;;5132807;27;20489;-32
2023/12/10 06:25:16;;;;;;;27.23;4.53;;;8.70;90.40;;;;;;5132787;27;20354;-34
2023/12/10 06:27:41;;;;;;;20.63;4.03;;;8.70;90.10;;;;;;5132502;27;20459;-33
2023/12/10 06:30:10;;;;;;;17.63;3.40;;;8.80;90.10;;;;;;5132394;27;20026;-30
2023/12/10 06:32:36;;;;;;;22.27;4.60;;;8.70;90.30;;;;;;5132269;27;20043;-29
2023/12/10 06:35:02;;;;;;;24.23;4.53;;;8.70;90.30;;;;;;5132920;27;20012;-29
2023/12/10 06:37:27;;;;;;;26.08;4.13;;;8.70;90.30;;;;;;5133005;27;20019;-29
2023/12/10 06:39:54;;;;;;;22.55;4.30;;;8.70;90.30;;;;;;5132769;27;20023;-29
2023/12/10 06:42:19;;;;;;;25.63;4.55;;;8.70;90.40;;;;;;5132724;27;20102;-28
2023/12/10 06:44:45;;;;;;;21.33;4.63;;;8.70;90.40;;;;;;5132500;27;20110;-29
2023/12/10 06:47:11;;;;;;;24.27;4.43;;;8.70;90.30;;;;;;5132756;27;20023;-29
2023/12/10 06:49:36;;;;;;;21.90;4.43;;;8.70;90.40;;;;;;5132505;27;20027;-29
2023/12/10 06:52:02;;;;;;;29.63;4.03;;;8.70;90.40;;;;;;5132252;27;20027;-29
2023/12/10 06:54:28;;;;;;;26.95;4.55;;;8.70;90.40;;;;;;5132668;27;20419;-29
2023/12/10 06:56:53;;;;;;;28.45;4.55;;;8.70;90.30;;;;;;5132341;27;20027;-28
2023/12/10 06:59:19;;;;;;;22.13;4.57;;;8.70;90.30;;;;;;5132303;27;20034;-29
2023/12/10 07:01:44;;;;;;;20.00;3.83;;;8.70;90.20;;;;;;5132264;27;20023;-30
2023/12/10 07:04:10;;;;;;;20.80;4.15;;;8.70;90.30;;;;;;5132246;27;20020;-30
2023/12/10 07:06:36;;;;;;;24.23;4.18;;;8.70;90.20;;;;;;5132550;27;20054;-31
2023/12/10 07:09:02;;;;;;;24.27;4.32;;;8.70;90.20;;;;;;5132343;27;20071;-29
2023/12/10 07:11:27;;;;;;;24.50;4.50;;;8.70;90.10;;;;;;5134302;27;20032;-31
2023/12/10 07:13:53;;;;;;;20.38;3.65;;;8.70;90.30;;;;;;5136059;27;20322;-29
2023/12/10 07:16:19;;;;;;;22.00;3.92;;;8.70;90.40;;;;;;5136161;27;20463;-29
2023/12/10 07:18:45;;;;;;;17.60;4.03;;;8.70;90.20;;;;;;5136219;27;20068;-29
2023/12/10 07:21:11;;;;;;;21.50;4.35;;;8.80;90.30;;;;;;5136194;27;20479;-30
2023/12/10 07:23:37;;;;;;;27.00;4.55;;;8.80;90.00;;;;;;5135820;27;20019;-29
2023/12/10 07:26:04;;;;;;;25.98;4.82;;;8.80;88.90;;;;;;5135992;27;20417;-30
2023/12/10 07:28:29;;;;;;;22.77;4.85;;;8.90;89.00;;;;;;5135905;27;20034;-33
2023/12/10 07:30:55;;;;;;;20.63;4.38;;;8.90;88.70;;;;;;5135603;27;20055;-28
2023/12/10 07:33:21;;;;;;;28.25;5.15;;;8.90;89.00;;;;;;5135703;27;20011;-30
2023/12/10 07:35:47;;;;;;;27.00;5.20;;;9.00;88.60;;;;;;5135702;27;20031;-29
2023/12/10 07:38:13;;;;;;;23.38;4.03;;;9.00;88.10;;;;;;5135661;27;20245;-32
2023/12/10 07:40:39;;;;;;;18.45;3.22;;;9.00;88.30;;;;;;5135453;27;20072;-31
2023/12/10 07:43:06;;;;;;;21.17;4.00;;;9.00;88.60;;;;;;5135786;27;20047;-32
2023/12/10 07:45:32;;;;;;;21.13;3.70;;;9.00;88.40;;;;;;5135367;27;20551;-35
2023/12/10 07:47:57;;;;;;;21.40;4.07;;;9.00;88.30;;;;;;5135269;27;20020;-32
2023/12/10 07:50:23;;;;;;;20.65;4.13;;;9.00;88.00;;;;;;5135694;27;20138;-31
2023/12/10 07:52:48;;;;;;;20.63;4.03;;;9.10;88.00;;;;;;5135008;27;20379;-35
2023/12/10 07:55:14;;;;;;;16.88;3.65;;;9.10;88.00;;;;;;5135438;27;20172;-29
2023/12/10 07:57:40;;;;;;;20.48;3.92;;;9.10;87.90;;;;;;5135523;27;20047;-28
2023/12/10 08:00:06;;;;;;;27.00;4.90;;;9.10;87.60;;;;;;5134093;27;20023;-30
2023/12/10 08:02:32;;;;;;;22.00;4.47;;;9.10;87.30;;;;;;5135091;27;20483;-29
2023/12/10 08:05:01;;;;;;;22.83;3.88;;;9.10;87.40;;;;;;5135407;27;20106;-28
2023/12/10 08:07:26;;;;;;;18.00;4.03;;;9.10;87.60;;;;;;5135166;27;20097;-32
2023/12/10 08:09:52;;;;;;;22.45;3.58;;;9.10;87.60;;;;;;5135155;27;20019;-29
2023/12/10 08:12:17;;;;;;;20.02;3.85;;;9.10;87.60;;;;;;5134948;27;20016;-32
2023/12/10 08:14:44;;;;;;;26.02;4.35;;;9.10;87.40;;;;;;5135548;27;20015;-30
2023/12/10 08:17:10;;;;;;;21.83;3.63;;;9.10;87.40;;;;;;5134975;27;20060;-29
2023/12/10 08:19:37;;;;;;;17.30;3.80;;;9.10;87.40;;;;;;5134960;27;20023;-29
2023/12/10 08:22:03;;;;;;;24.70;3.85;;;9.10;87.00;;;;;;5134523;27;20102;-31
2023/12/10 08:24:29;;;;;;;23.70;4.05;;;9.10;87.20;;;;;;5134573;27;20489;-33
2023/12/10 08:26:54;;;;;;;16.63;3.40;;;9.20;87.20;;;;;;5134428;27;20502;-32
2023/12/10 08:29:20;;;;;;;19.10;3.95;;;9.20;87.10;;;;;;5134919;27;20102;-31
2023/12/10 08:31:46;;;;;;;21.48;5.07;;;9.20;87.10;;;;;;5134355;27;20043;-31
2023/12/10 08:34:11;;;;;;;24.45;4.43;;;9.20;86.70;;;;;;5133579;27;20094;-29
2023/12/10 08:36:38;;;;;;;20.38;3.80;;;9.20;86.30;;;;;;5134350;27;20054;-31
2023/12/10 08:39:04;;;;;;;19.88;3.80;;;9.20;86.60;;;;;;5134462;27;20099;-34
2023/12/10 08:41:31;;;;;;;22.42;3.72;;;9.20;86.30;;;;;;5134661;27;20027;-30
2023/12/10 08:43:56;;;;;;;22.02;4.13;;;9.20;86.80;;;;;;5134162;27;20027;-32
2023/12/10 08:46:22;;;;;;;20.67;4.13;;;9.20;86.60;;;;;;5134708;27;20223;-30
2023/12/10 08:48:47;;;;;;;17.80;4.50;;;9.20;86.70;;;;;;5134135;27;20027;-28
2023/12/10 08:51:13;;;;;;;17.50;3.50;;;9.20;86.80;;;;;;5134127;27;20025;-29
2023/12/10 08:53:39;;;;;;;17.30;3.58;;;9.20;86.80;;;;;;5134103;27;20031;-30
2023/12/10 08:56:05;;;;;;;21.20;3.97;;;9.30;86.30;;;;;;5134321;27;20027;-34
2023/12/10 08:58:31;;;;;;;20.52;4.45;;;9.20;86.60;;;;;;5134006;27;20118;-29
2023/12/10 09:00:57;;;;;;;22.00;4.25;;;9.30;86.30;;;;;;5134129;27;20019;-34
2023/12/10 09:03:22;;;;;;;18.60;3.55;;;9.30;86.50;;;;;;5133837;27;20027;-31
2023/12/10 09:05:48;;;;;;;17.52;3.50;;;9.30;86.50;;;;;;5133889;27;20503;-29
2023/12/10 09:08:13;;;;;;;20.40;3.50;;;9.30;86.30;;;;;;5134182;27;20019;-33
2023/12/10 09:10:39;;;;;;;14.82;3.85;;;9.30;86.30;;;;;;5132547;27;20019;-31
2023/12/10 09:13:05;;;;;;;18.67;4.50;;;9.30;86.20;;;;;;5132408;27;20079;-29
2023/12/10 09:15:30;;;;;;;14.85;4.75;;;9.30;86.30;;;;;;5133832;27;20019;-32
2023/12/10 09:17:56;;;;;;;20.10;3.97;;;9.30;86.40;;;;;;5133449;27;20027;-31
2023/12/10 09:20:21;;;;;;;16.73;3.40;;;9.30;86.40;;;;;;5134126;27;20032;-37
2023/12/10 09:22:47;;;;;;;23.70;3.85;;;9.30;86.50;;;;;;5133576;27;20029;-30
2023/12/10 09:25:12;;;;;;;19.70;3.75;;;9.30;86.00;;;;;;5132232;27;20023;-28
2023/12/10 09:27:38;;;;;;;24.50;4.40;;;9.30;85.90;;;;;;5133363;27;20019;-30
2023/12/10 09:30:04;;;;;;;15.38;3.33;;;9.40;86.00;;;;;;5133421;27;20027;-35
2023/12/10 09:32:30;;;;;;;22.45;4.15;;;9.40;85.60;;;;;;5133796;27;20043;-29
2023/12/10 09:34:55;;;;;;;17.45;3.17;;;9.40;85.70;;;;;;5132793;27;20035;-32
2023/12/10 09:37:21;;;;;;;20.52;3.65;;;9.40;85.80;;;;;;5133410;27;20031;-32
2023/12/10 09:39:46;;;;;;;21.30;3.85;;;9.40;85.70;;;;;;5133141;27;20027;-34
2023/12/10 09:42:12;;;;;;;19.75;3.45;;;9.40;85.80;;;;;;5133145;27;20102;-33
2023/12/10 09:44:38;;;;;;;16.98;3.50;;;9.40;85.60;;;;;;5133027;27;20554;-31
2023/12/10 09:47:08;;;;;;;17.17;3.60;;;9.40;85.60;;;;;;5133289;27;20039;-33
2023/12/10 09:49:37;;;;;;;20.50;4.00;;;9.50;85.60;;;;;;5133115;27;20056;-33
2023/12/10 09:52:08;;;;;;;20.77;3.70;;;9.50;85.80;;;;;;5133120;27;20030;-31
2023/12/10 09:54:33;;;;;;;18.70;3.47;;;9.50;85.90;;;;;;5132966;27;20076;-30
2023/12/10 09:56:59;;;;;;;21.20;4.18;;;9.50;85.50;;;;;;5131658;27;20470;-37
2023/12/10 09:59:24;;;;;;;18.48;3.33;;;9.50;85.50;;;;;;5133089;27;20096;-34
2023/12/10 10:01:53;;;;;;;20.42;4.40;;;9.50;85.60;;;;;;5133097;27;20027;-34
2023/12/10 10:04:19;;;;;;;18.98;3.60;;;9.50;85.70;;;;;;5132931;27;20027;-31
2023/12/10 10:06:45;;;;;;;17.10;3.47;;;9.50;85.70;;;;;;5132934;27;20479;-29
2023/12/10 10:09:10;;;;;;;18.77;3.45;;;9.60;85.40;;;;;;5133029;27;20088;-30
2023/12/10 10:11:38;;;;;;;17.98;4.32;;;9.60;85.30;;;;;;5132827;27;20023;-30
2023/12/10 10:14:04;;;;;;;14.95;3.00;;;9.60;84.90;;;;;;5133184;27;20033;-29
2023/12/10 10:16:31;;;;;;;17.92;3.13;;;9.60;85.30;;;;;;5132758;27;20023;-31
2023/12/10 10:19:01;;;;;;;22.58;3.47;;;9.70;84.80;;;;;;5132607;27;20031;-29
2023/12/10 10:21:27;;;;;;;19.58;3.45;;;9.70;84.90;;;;;;5132780;27;20513;-30
2023/12/10 10:23:53;;;;;;;21.80;3.58;;;9.70;84.60;;;;;;5133076;27;20023;-30
2023/12/10 10:26:18;;;;;;;17.13;3.35;;;9.70;84.50;;;;;;5132935;27;20058;-30
2023/12/10 10:28:45;;;;;;;16.10;3.22;;;9.80;84.70;;;;;;5133086;27;20027;-29
2023/12/10 10:31:11;;;;;;;15.10;3.35;;;9.70;84.70;;;;;;5132553;27;20031;-29
2023/12/10 10:33:37;;;;;;;17.17;3.58;;;9.80;84.40;;;;;;5132657;27;20027;-29
2023/12/10 10:36:04;;;;;;;20.67;3.47;;;9.80;84.60;;;;;;5132512;27;20072;-29
2023/12/10 10:38:31;;;;;;;13.60;3.35;;;9.80;84.70;;;;;;5132649;27;20095;-30
2023/12/10 10:41:00;;;;;;;14.80;3.35;;;9.80;84.90;;;;;;5132609;27;20030;-33
2023/12/10 10:43:26;;;;;;;16.27;3.38;;;9.80;84.90;;;;;;5132496;27;20500;-29
2023/12/10 10:45:56;;;;;;;15.57;3.25;;;9.80;84.90;;;;;;5135449;27;20027;-31
2023/12/10 10:48:25;;;;;;;19.75;3.90;;;9.80;85.10;;;;;;5135355;27;20076;-34
2023/12/10 10:50:52;;;;;;;21.48;3.53;;;9.80;85.10;;;;;;5136993;27;20029;-28
2023/12/10 10:53:18;;;;;;;21.42;3.85;;;9.80;85.00;;;;;;5136648;27;20023;-29
2023/12/10 10:55:48;;;;;;;19.10;3.78;;;9.80;84.80;;;;;;5136814;27;20043;-32
2023/12/10 10:58:39;;;;;;;18.52;3.60;;;9.80;85.10;;;;;;5136844;27;20406;-29
2023/12/10 11:01:05;;;;;;;11.65;2.78;;;9.80;85.10;;;;;;5134347;27;20525;-30
2023/12/10 11:03:31;;;;;;;22.13;3.58;;;9.80;85.20;;;;;;5136525;27;20128;-29
2023/12/10 11:06:02;;;;;;;17.02;3.22;;;9.90;85.20;;;;;;5136491;27;20031;-33
2023/12/10 11:08:29;;;;;;;20.98;4.10;;;9.90;85.40;;;;;;5136300;27;20034;-29
2023/12/10 11:11:00;;;;;;;21.15;3.70;;;9.90;84.90;;;;;;5136672;27;20031;-29
2023/12/10 11:13:45;;;;;;;17.98;3.60;;;9.90;85.10;;;;;;5136338;27;20102;-32
2023/12/10 11:16:11;;;;;;;20.25;3.92;;;10.00;85.00;;;;;;5134725;27;20253;-30
2023/12/10 11:18:53;;;;;;;17.63;4.00;;;10.00;84.90;;;;;;5136329;27;20027;-28
2023/12/10 11:21:19;;;;;;;22.42;3.80;;;10.00;84.70;;;;;;5136151;27;20054;-32
2023/12/10 11:23:45;;;;;;;17.42;3.42;;;10.10;84.50;;;;;;5136295;27;20447;-34
2023/12/10 11:26:10;;;;;;;23.40;4.20;;;10.10;84.30;;;;;;5135852;27;20027;-29
2023/12/10 11:28:36;;;;;;;17.90;3.60;;;10.10;84.30;;;;;;5136198;27;20098;-31
2023/12/10 11:31:02;;;;;;;16.00;3.28;;;10.20;84.30;;;;;;5134707;27;20039;-35
2023/12/10 11:33:28;;;;;;;19.20;3.65;;;10.20;84.40;;;;;;5135686;27;20034;-30
2023/12/10 11:36:00;;;;;;;16.50;3.78;;;10.20;84.30;;;;;;5135794;27;20055;-30
2023/12/10 11:38:25;;;;;;;15.18;3.17;;;10.20;84.30;;;;;;5135613;27;20042;-29
2023/12/10 11:40:52;;;;;;;18.20;3.65;;;10.20;84.40;;;;;;5135790;27;20498;-32
2023/12/10 11:43:19;;;;;;;23.42;3.63;;;10.30;84.50;;;;;;5135542;27;20042;-29
2023/12/10 11:45:45;;;;;;;19.40;4.03;;;10.30;84.40;;;;;;5135760;27;20502;-31
2023/12/10 11:48:10;;;;;;;16.40;3.20;;;10.30;84.30;;;;;;5135309;27;20023;-30
2023/12/10 11:50:37;;;;;;;13.52;3.65;;;10.30;84.40;;;;;;5135619;27;20382;-32
2023/12/10 11:53:03;;;;;;;19.55;3.60;;;10.30;84.50;;;;;;5135450;27;20027;-31
2023/12/10 11:55:30;;;;;;;24.92;4.00;;;10.40;84.50;;;;;;5135670;27;20480;-31
2023/12/10 11:57:57;;;;;;;17.90;3.88;;;10.40;84.60;;;;;;5134814;27;20033;-30
2023/12/10 12:00:24;;;;;;;20.88;3.80;;;10.50;84.50;;;;;;5135200;27;20024;-32
2023/12/10 12:02:52;;;;;;;20.35;3.50;;;10.50;84.30;;;;;;5135329;27;20023;-28
2023/12/10 12:05:18;;;;;;;17.10;3.08;;;10.50;84.50;;;;;;5135548;27;20072;-30
2023/12/10 12:07:47;;;;;;;13.88;2.85;;;10.50;84.50;;;;;;5135005;27;20019;-29
2023/12/10 12:10:13;;;;;;;15.93;3.78;;;10.50;84.40;;;;;;5135113;27;20023;-30
2023/12/10 12:12:41;;;;;;;18.10;3.50;;;10.50;84.10;;;;;;5135015;27;20098;-30
2023/12/10 12:15:08;;;;;;;14.75;2.97;;;10.50;84.20;;;;;;5135190;27;20497;-30
2023/12/10 12:17:36;;;;;;;17.98;3.40;;;10.50;84.10;;;;;;5134933;27;20035;-29
2023/12/10 12:20:16;;;;;;;19.80;3.53;;;10.40;84.10;;;;;;5134976;27;20035;-31
2023/12/10 12:22:42;;;;;;;18.20;2.75;;;10.50;84.20;;;;;;5135162;27;20031;-28
2023/12/10 12:25:08;;;;;;;13.27;3.13;;;10.50;84.40;;;;;;5134615;27;20031;-31
2023/12/10 12:27:34;;;;;;;19.05;3.40;;;10.50;84.40;;;;;;5134677;27;20027;-31
2023/12/10 12:29:59;;;;;;;15.80;2.75;;;10.60;84.40;;;;;;5134521;27;20063;-32
2023/12/10 12:32:25;;;;;;;13.75;2.70;;;10.50;84.20;;;;;;5134406;27;20039;-32
2023/12/10 12:34:50;;;;;;;16.67;2.65;;;10.60;84.30;;;;;;5134446;27;20023;-33
2023/12/10 12:37:16;;;;;;;17.27;3.88;;;10.60;85.00;;;;;;5132770;27;20116;-30
2023/12/10 12:39:42;;;;;;;16.17;3.10;;;10.60;84.20;;;;;;5134418;27;20058;-30